createdAt,value
2023-05-01T00:00:16.064Z,67.25
2023-05-01T00:03:43.446Z,63.50
2023-05-01T00:06:47.441Z,63.50
2023-05-01T00:09:51.795Z,64.00
2023-05-01T00:12:55.645Z,64.25
2023-05-01T00:16:00.597Z,72.50
2023-05-01T00:19:05.128Z,67.00
2023-05-01T00:22:08.811Z,67.00
2023-05-01T00:25:13.120Z,65.50
2023-05-01T00:28:16.686Z,61.00
2023-05-01T00:31:22.188Z,62.00
2023-05-01T00:34:25.898Z,59.00
2023-05-01T00:37:29.949Z,61.25
2023-05-01T00:40:33.908Z,76.25
2023-05-01T00:43:38.958Z,68.25
2023-05-01T00:46:43.971Z,64.25
2023-05-01T00:49:49.342Z,64.50
2023-05-01T00:52:52.868Z,72.25
2023-05-01T00:55:59.460Z,70.25
2023-05-01T00:59:02.974Z,73.75
2023-05-01T01:02:08.360Z,79.00
2023-05-01T01:05:11.979Z,79.25
2023-05-01T01:08:25.151Z,77.25
2023-05-01T01:11:39.383Z,72.75
2023-05-01T01:14:51.872Z,33.25
2023-05-01T01:18:05.412Z,74.50
2023-05-01T01:21:15.786Z,77.50
2023-05-01T01:24:37.443Z,77.75
2023-05-01T01:28:15.104Z,74.75
2023-05-01T01:31:23.644Z,75.50
2023-05-01T01:34:35.384Z,73.50
2023-05-01T01:37:44.168Z,76.25
2023-05-01T01:40:56.760Z,76.50
2023-05-01T01:44:04.071Z,78.75
2023-05-01T01:47:12.214Z,70.75
2023-05-01T01:50:19.238Z,79.75
2023-05-01T01:53:25.191Z,72.25
2023-05-01T01:56:33.027Z,68.50
2023-05-01T01:59:36.930Z,65.25
2023-05-01T02:02:42.330Z,69.50
2023-05-01T02:05:50.473Z,65.75
2023-05-01T02:08:55.592Z,74.50
2023-05-01T02:12:02.412Z,71.25
2023-05-01T02:15:09.413Z,78.25
2023-05-01T02:18:17.017Z,77.25
2023-05-01T02:21:23.091Z,74.50
2023-05-01T02:24:30.541Z,73.25
2023-05-01T02:27:39.512Z,66.50
2023-05-01T02:30:43.504Z,71.00
2023-05-01T02:33:47.024Z,65.50
2023-05-01T02:36:52.477Z,70.50
2023-05-01T02:39:57.244Z,66.25
2023-05-01T02:43:06.826Z,60.25
2023-05-01T02:46:13.742Z,62.00
2023-05-01T02:49:19.731Z,56.25
2023-05-01T02:52:25.074Z,61.25
2023-05-01T02:55:38.838Z,63.25
2023-05-01T02:58:43.195Z,62.50
2023-05-01T03:01:47.421Z,58.50
2023-05-01T03:04:50.871Z,55.75
2023-05-01T03:07:56.418Z,57.75
2023-05-01T03:10:59.878Z,55.50
2023-05-01T03:14:03.743Z,61.75
2023-05-01T03:18:23.525Z,58.50
2023-05-01T03:21:27.592Z,55.00
2023-05-01T03:24:32.660Z,58.75
2023-05-01T03:27:36.825Z,59.25
2023-05-01T03:30:40.244Z,58.50
2023-05-01T03:33:44.205Z,60.00
2023-05-01T03:36:47.924Z,56.25
2023-05-01T03:39:53.241Z,57.00
2023-05-01T03:43:26.313Z,65.75
2023-05-01T03:46:32.171Z,61.50
2023-05-01T03:49:35.864Z,71.50
2023-05-01T03:52:39.686Z,60.00
2023-05-01T03:55:45.101Z,56.00
2023-05-01T03:58:50.811Z,31.00
2023-05-01T04:01:54.811Z,61.00
2023-05-01T04:04:59.224Z,57.25
2023-05-01T04:08:04.390Z,57.00
2023-05-01T04:11:11.014Z,62.25
2023-05-01T04:14:14.702Z,62.75
2023-05-01T04:17:18.704Z,50.00
2023-05-01T04:20:22.491Z,46.50
2023-05-01T04:23:26.779Z,55.00
2023-05-01T04:26:35.820Z,47.25
2023-05-01T04:29:41.806Z,49.75
2023-05-01T04:32:45.872Z,42.25
2023-05-01T04:35:50.186Z,41.75
2023-05-01T04:38:54.068Z,51.50
2023-05-01T04:41:59.452Z,57.00
2023-05-01T04:45:04.210Z,60.50
2023-05-01T04:48:11.989Z,54.25
2023-05-01T04:51:16.008Z,42.25
2023-05-01T04:54:19.773Z,46.25
2023-05-01T04:57:25.520Z,47.00
2023-05-01T05:00:30.861Z,48.00
2023-05-01T05:03:35.917Z,61.00
2023-05-01T05:06:39.965Z,59.00
2023-05-01T05:09:49.530Z,53.75
2023-05-01T05:12:54.872Z,36.50
2023-05-01T05:15:58.535Z,57.00
2023-05-01T05:19:03.644Z,61.25
2023-05-01T05:22:13.657Z,56.50
2023-05-01T05:25:38.196Z,62.50
2023-05-01T05:28:43.085Z,49.50
2023-05-01T05:31:47.385Z,56.75
2023-05-01T05:34:51.787Z,55.25
2023-05-01T05:37:56.038Z,47.25
2023-05-01T05:41:01.088Z,38.75
2023-05-01T05:44:09.102Z,45.25
2023-05-01T05:47:12.748Z,46.75
2023-05-01T05:50:17.184Z,44.75
2023-05-01T05:53:28.142Z,54.50
2023-05-01T05:56:39.019Z,55.50
2023-05-01T05:59:45.507Z,53.00
2023-05-01T06:02:51.728Z,60.75
2023-05-01T06:05:57.060Z,58.00
2023-05-01T06:09:02.374Z,60.75
2023-05-01T06:12:07.297Z,56.00
2023-05-01T06:15:17.215Z,60.75
2023-05-01T06:18:30.212Z,48.50
2023-05-01T06:21:35.610Z,51.50
2023-05-01T06:24:39.826Z,50.25
2023-05-01T06:27:46.044Z,53.75
2023-05-01T06:30:51.364Z,50.50
2023-05-01T06:33:57.209Z,54.50
2023-05-01T06:37:18.260Z,54.00
2023-05-01T06:40:22.711Z,55.50
2023-05-01T06:43:30.571Z,54.50
2023-05-01T06:46:36.015Z,48.00
2023-05-01T06:49:39.908Z,47.00
2023-05-01T06:52:45.656Z,41.00
2023-05-01T06:55:49.255Z,39.50
2023-05-01T06:58:53.484Z,53.25
2023-05-01T07:01:58.360Z,33.25
2023-05-01T07:05:02.472Z,35.00
2023-05-01T07:08:06.657Z,37.00
2023-05-01T07:11:10.952Z,32.33
2023-05-01T07:14:14.457Z,19.33
2023-05-01T07:17:19.781Z,19.67
2023-05-01T07:20:23.508Z,16.00
2023-05-01T07:23:27.561Z,10.00
2023-05-01T07:26:31.078Z,14.33
2023-05-01T07:29:37.241Z,18.33
2023-05-01T07:32:44.465Z,14.33
2023-05-01T07:35:48.281Z,13.33
2023-05-01T07:38:51.893Z,20.00
2023-05-01T07:41:58.264Z,15.00
2023-05-01T07:45:01.775Z,15.00
2023-05-01T07:48:07.588Z,18.00
2023-05-01T07:51:11.222Z,11.67
2023-05-01T07:54:16.508Z,15.00
2023-05-01T07:57:20.005Z,15.67
2023-05-01T08:00:23.920Z,13.67
2023-05-01T08:03:30.776Z,19.00
2023-05-01T08:06:54.787Z,13.33
2023-05-01T08:10:00.475Z,13.67
2023-05-01T08:13:04.781Z,12.33
2023-05-01T08:16:09.099Z,20.00
2023-05-01T08:19:16.061Z,14.33
2023-05-01T08:22:19.460Z,18.00
2023-05-01T08:25:24.667Z,13.33
2023-05-01T08:28:28.261Z,10.00
2023-05-01T08:31:32.294Z,10.67
2023-05-01T08:34:37.781Z,8.67
2023-05-01T08:37:41.615Z,10.00
2023-05-01T08:40:52.365Z,10.67
2023-05-01T08:44:03.244Z,10.67
2023-05-01T08:47:13.767Z,7.67
2023-05-01T08:50:19.608Z,10.33
2023-05-01T08:53:25.175Z,14.00
2023-05-01T08:56:31.307Z,12.33
2023-05-01T08:59:35.816Z,13.00
2023-05-01T09:02:42.452Z,14.33
2023-05-01T09:05:47.732Z,11.00
2023-05-01T09:09:16.708Z,10.33
2023-05-01T09:12:25.929Z,11.00
2023-05-01T09:15:31.458Z,9.67
2023-05-01T09:18:35.953Z,11.00
2023-05-01T09:21:42.707Z,8.33
2023-05-01T09:24:46.992Z,6.00
2023-05-01T09:27:50.836Z,6.00
2023-05-01T09:30:54.822Z,6.33
2023-05-01T09:34:00.229Z,8.33
2023-05-01T09:37:05.244Z,15.00
2023-05-01T09:40:12.017Z,8.33
2023-05-01T09:43:17.178Z,9.00
2023-05-01T09:46:22.888Z,11.00
2023-05-01T09:49:45.864Z,10.67
2023-05-01T09:52:53.441Z,10.33
2023-05-01T09:56:02.368Z,23.67
2023-05-01T09:59:17.310Z,19.67
2023-05-01T10:02:29.972Z,8.33
2023-05-01T10:05:44.361Z,6.33
2023-05-01T10:08:51.382Z,9.00
2023-05-01T10:11:57.740Z,18.00
2023-05-01T10:15:10.775Z,8.00
2023-05-01T10:18:19.451Z,8.33
2023-05-01T10:21:23.540Z,6.67
2023-05-01T10:24:28.709Z,8.00
2023-05-01T10:27:33.536Z,23.33
2023-05-01T10:30:38.249Z,17.33
2023-05-01T10:33:42.880Z,9.00
2023-05-01T10:36:50.509Z,7.67
2023-05-01T10:39:55.681Z,9.00
2023-05-01T10:43:21.159Z,8.33
2023-05-01T10:46:29.914Z,8.67
2023-05-01T10:50:07.385Z,9.67
2023-05-01T10:53:18.295Z,17.33
2023-05-01T10:56:44.362Z,9.00
2023-05-01T11:00:13.625Z,19.00
2023-05-01T11:03:36.645Z,13.33
2023-05-01T11:07:18.008Z,13.00
2023-05-01T11:10:28.349Z,8.67
2023-05-01T11:14:00.875Z,3.33
2023-05-01T11:17:04.617Z,10.67
2023-05-01T11:20:09.478Z,12.00
2023-05-01T11:23:18.824Z,13.33
2023-05-01T11:26:24.859Z,5.67
2023-05-01T11:29:42.267Z,11.00
2023-05-01T11:32:48.196Z,9.33
2023-05-01T11:36:01.180Z,3.33
2023-05-01T11:39:06.317Z,10.33
2023-05-01T11:42:10.991Z,11.00
2023-05-01T11:45:35.316Z,8.00
2023-05-01T11:48:41.834Z,7.00
2023-05-01T11:51:45.691Z,7.33
2023-05-01T11:54:49.670Z,8.67
2023-05-01T11:57:54.848Z,13.67
2023-05-01T12:01:05.856Z,10.67
2023-05-01T12:04:10.087Z,8.00
2023-05-01T12:07:21.970Z,7.33
2023-05-01T12:10:25.933Z,8.33
2023-05-01T12:13:30.123Z,7.00
2023-05-01T12:16:36.316Z,6.00
2023-05-01T12:19:49.842Z,7.00
2023-05-01T12:22:53.863Z,8.00
2023-05-01T12:25:58.438Z,6.00
2023-05-01T12:29:03.227Z,5.00
2023-05-01T12:32:09.594Z,6.67
2023-05-01T12:35:16.978Z,7.00
2023-05-01T12:38:22.702Z,8.33
2023-05-01T12:41:38.185Z,14.33
2023-05-01T12:44:44.275Z,8.67
2023-05-01T12:47:49.687Z,20.33
2023-05-01T12:50:55.622Z,11.00
2023-05-01T12:53:59.349Z,7.00
2023-05-01T12:57:08.182Z,7.00
2023-05-01T13:00:13.402Z,9.00
2023-05-01T13:03:25.077Z,11.00
2023-05-01T13:06:34.697Z,6.67
2023-05-01T13:09:39.385Z,6.00
2023-05-01T13:12:46.344Z,12.33
2023-05-01T13:15:50.158Z,6.00
2023-05-01T13:18:55.632Z,11.00
2023-05-01T13:22:00.221Z,15.33
2023-05-01T13:25:05.232Z,9.33
2023-05-01T13:28:09.404Z,9.67
2023-05-01T13:31:14.635Z,8.00
2023-05-01T13:34:25.657Z,7.33
2023-05-01T13:37:29.298Z,7.33
2023-05-01T13:40:36.263Z,9.00
2023-05-01T13:43:41.240Z,7.67
2023-05-01T13:46:45.452Z,8.00
2023-05-01T13:49:50.769Z,8.00
2023-05-01T13:52:55.051Z,8.33
2023-05-01T13:55:58.746Z,9.33
2023-05-01T13:59:03.096Z,9.00
2023-05-01T14:02:20.684Z,3.00
2023-05-01T14:05:28.195Z,15.67
2023-05-01T14:08:32.632Z,8.00
2023-05-01T14:11:42.114Z,9.33
2023-05-01T14:14:49.057Z,9.33
2023-05-01T14:17:53.599Z,8.00
2023-05-01T14:21:00.700Z,6.00
2023-05-01T14:24:05.131Z,8.00
2023-05-01T14:27:10.084Z,11.67
2023-05-01T14:30:20.073Z,6.67
2023-05-01T14:33:23.806Z,22.33
2023-05-01T14:36:31.264Z,8.67
2023-05-01T14:39:34.887Z,10.00
2023-05-01T14:42:43.255Z,15.00
2023-05-01T14:45:49.764Z,6.33
2023-05-01T14:48:54.207Z,8.33
2023-05-01T14:51:59.173Z,5.33
2023-05-01T14:55:03.144Z,7.33
2023-05-01T14:58:06.881Z,6.00
2023-05-01T15:01:11.216Z,20.00
2023-05-01T15:04:14.898Z,23.67
2023-05-01T15:07:20.608Z,7.67
2023-05-01T15:10:24.332Z,10.33
2023-05-01T15:13:28.971Z,8.00
2023-05-01T15:16:32.774Z,8.00
2023-05-01T15:19:37.481Z,7.33
2023-05-01T15:22:42.290Z,5.00
2023-05-01T15:25:48.052Z,13.00
2023-05-01T15:28:51.907Z,8.33
2023-05-01T15:32:08.196Z,11.33
2023-05-01T15:35:16.687Z,9.00
2023-05-01T15:38:22.199Z,12.00
2023-05-01T15:41:25.757Z,5.67
2023-05-01T15:44:29.715Z,6.33
2023-05-01T15:47:33.633Z,8.00
2023-05-01T15:50:37.800Z,8.00
2023-05-01T15:53:42.935Z,8.33
2023-05-01T15:56:47.379Z,10.00
2023-05-01T15:59:54.081Z,8.33
2023-05-01T16:02:58.457Z,6.67
2023-05-01T16:06:03.008Z,8.33
2023-05-01T16:09:08.829Z,9.33
2023-05-01T16:12:12.594Z,8.67
2023-05-01T16:15:17.070Z,7.00
2023-05-01T16:18:24.571Z,6.00
2023-05-01T16:21:29.242Z,8.33
2023-05-01T16:24:35.997Z,8.00
2023-05-01T16:27:42.444Z,8.00
2023-05-01T16:30:46.752Z,9.33
2023-05-01T16:33:51.864Z,6.00
2023-05-01T16:36:56.478Z,8.67
2023-05-01T16:40:04.619Z,8.00
2023-05-01T16:43:08.041Z,7.33
2023-05-01T16:46:12.308Z,7.00
2023-05-01T16:49:18.878Z,10.67
2023-05-01T16:52:22.761Z,7.33
2023-05-01T16:55:28.414Z,6.00
2023-05-01T16:58:32.498Z,8.33
2023-05-01T17:01:36.332Z,8.67
2023-05-01T17:04:40.397Z,9.00
2023-05-01T17:07:44.321Z,9.67
2023-05-01T17:10:50.079Z,6.00
2023-05-01T17:13:53.636Z,7.67
2023-05-01T17:16:58.736Z,11.67
2023-05-01T17:20:02.463Z,17.00
2023-05-01T17:23:06.840Z,7.33
2023-05-01T17:26:13.589Z,11.33
2023-05-01T17:29:17.767Z,13.00
2023-05-01T17:32:35.730Z,12.67
2023-05-01T17:35:41.937Z,16.00
2023-05-01T17:38:45.650Z,11.50
2023-05-01T17:41:51.315Z,16.00
2023-05-01T17:44:54.694Z,24.00
2023-05-01T17:48:00.942Z,29.25
2023-05-01T17:51:04.803Z,51.00
2023-05-01T17:54:08.714Z,25.00
2023-05-01T17:57:13.872Z,21.33
2023-05-01T18:00:18.532Z,31.50
2023-05-01T18:03:23.618Z,29.50
2023-05-01T18:06:27.543Z,25.75
2023-05-01T18:09:31.144Z,42.00
2023-05-01T18:12:36.598Z,53.00
2023-05-01T18:15:40.172Z,52.25
2023-05-01T18:18:44.077Z,53.50
2023-05-01T18:21:47.599Z,41.50
2023-05-01T18:24:51.562Z,29.75
2023-05-01T18:27:57.538Z,23.25
2023-05-01T18:31:01.811Z,27.00
2023-05-01T18:34:06.486Z,17.25
2023-05-01T18:37:10.328Z,19.50
2023-05-01T18:40:14.539Z,20.33
2023-05-01T18:43:19.936Z,20.00
2023-05-01T18:46:24.457Z,29.00
2023-05-01T18:49:28.297Z,23.50
2023-05-01T18:52:32.199Z,20.00
2023-05-01T18:55:36.678Z,19.00
2023-05-01T18:58:41.809Z,18.75
2023-05-01T19:01:47.704Z,21.75
2023-05-01T19:04:57.561Z,27.50
2023-05-01T19:08:05.189Z,17.00
2023-05-01T19:11:08.650Z,14.00
2023-05-01T19:14:14.062Z,15.33
2023-05-01T19:17:17.680Z,18.50
2023-05-01T19:20:22.030Z,17.67
2023-05-01T19:23:27.233Z,11.00
2023-05-01T19:26:31.063Z,18.67
2023-05-01T19:29:35.972Z,13.67
2023-05-01T19:32:40.113Z,20.67
2023-05-01T19:35:43.763Z,25.25
2023-05-01T19:38:47.746Z,24.75
2023-05-01T19:41:52.509Z,22.00
2023-05-01T19:44:58.221Z,20.50
2023-05-01T19:48:02.538Z,12.00
2023-05-01T19:51:06.600Z,12.33
2023-05-01T19:54:10.317Z,18.75
2023-05-01T19:57:17.123Z,13.00
2023-05-01T20:00:22.387Z,13.00
2023-05-01T20:03:26.599Z,22.25
2023-05-01T20:06:30.388Z,22.00
2023-05-01T20:09:34.526Z,15.75
2023-05-01T20:12:38.386Z,25.00
2023-05-01T20:15:43.566Z,17.75
2023-05-01T20:18:46.926Z,18.00
2023-05-01T20:21:51.100Z,13.67
2023-05-01T20:24:55.932Z,16.00
2023-05-01T20:28:00.194Z,15.67
2023-05-01T20:31:05.148Z,23.00
2023-05-01T20:34:09.227Z,16.25
2023-05-01T20:37:12.961Z,18.00
2023-05-01T20:40:17.125Z,12.25
2023-05-01T20:43:20.601Z,13.00
2023-05-01T20:46:26.148Z,14.25
2023-05-01T20:49:30.489Z,19.00
2023-05-01T20:52:35.499Z,28.25
2023-05-01T20:55:39.663Z,24.50
2023-05-01T20:58:43.577Z,16.75
2023-05-01T21:01:49.741Z,13.50
2023-05-01T21:04:53.996Z,15.50
2023-05-01T21:07:58.330Z,10.75
2023-05-01T21:11:03.661Z,12.50
2023-05-01T21:14:07.353Z,17.00
2023-05-01T21:17:13.280Z,11.25
2023-05-01T21:20:17.825Z,13.00
2023-05-01T21:23:21.626Z,12.25
2023-05-01T21:26:25.289Z,14.00
2023-05-01T21:29:29.724Z,11.00
2023-05-01T21:32:40.499Z,22.25
2023-05-01T21:35:46.974Z,31.50
2023-05-01T21:38:51.386Z,18.00
2023-05-01T21:42:05.027Z,12.00
2023-05-01T21:45:10.234Z,10.50
2023-05-01T21:48:17.718Z,7.50
2023-05-01T21:51:27.205Z,7.25
2023-05-01T21:54:32.813Z,5.25
2023-05-01T21:57:36.706Z,12.25
2023-05-01T22:00:41.815Z,9.75
2023-05-01T22:03:48.295Z,8.00
2023-05-01T22:06:52.237Z,9.00
2023-05-01T22:09:55.850Z,10.75
2023-05-01T22:13:00.027Z,11.50
2023-05-01T22:16:04.515Z,8.25
2023-05-01T22:19:11.926Z,10.25
2023-05-01T22:22:15.382Z,6.00
2023-05-01T22:25:19.220Z,6.00
2023-05-01T22:28:22.822Z,7.00
2023-05-01T22:31:26.838Z,12.25
2023-05-01T22:34:31.737Z,8.25
2023-05-01T22:37:35.691Z,7.25
2023-05-01T22:40:39.228Z,7.33
2023-05-01T22:43:43.077Z,6.00
2023-05-01T22:46:47.156Z,7.33
2023-05-01T22:49:52.565Z,8.25
2023-05-01T22:52:56.150Z,6.75
2023-05-01T22:56:00.004Z,5.25
2023-05-01T22:59:03.581Z,6.25
2023-05-01T23:02:07.511Z,2.00
2023-05-01T23:05:13.382Z,9.25
2023-05-01T23:08:17.183Z,7.50
2023-05-01T23:11:21.375Z,5.00
2023-05-01T23:14:25.603Z,8.75
2023-05-01T23:17:34.990Z,4.00
2023-05-01T23:20:41.789Z,8.75
2023-05-01T23:23:46.574Z,8.50
2023-05-01T23:26:50.562Z,5.00
2023-05-01T23:29:56.551Z,7.00
2023-05-01T23:33:00.980Z,5.00
2023-05-01T23:36:10.288Z,7.75
2023-05-01T23:39:16.442Z,7.75
2023-05-01T23:42:20.369Z,6.00
2023-05-01T23:45:24.517Z,5.75
2023-05-01T23:48:28.147Z,5.25
2023-05-01T23:51:34.144Z,5.00
2023-05-01T23:54:37.620Z,5.00
2023-05-01T23:57:41.741Z,5.00
